createdAt,value
2022-11-17T00:00:00.181Z,9.4
2022-11-17T00:01:08.142Z,9.4
2022-11-17T00:02:00.235Z,9.4
2022-11-17T00:03:00.152Z,9.4
2022-11-17T00:04:00.159Z,9.4
2022-11-17T00:05:00.153Z,9.4
2022-11-17T00:06:02.316Z,9.4
2022-11-17T00:07:00.227Z,9.4
2022-11-17T00:08:00.160Z,9.4
2022-11-17T00:09:00.156Z,9.4
2022-11-17T00:10:00.187Z,9.4
2022-11-17T00:11:00.822Z,9.4
2022-11-17T00:12:00.164Z,9.4
2022-11-17T00:13:00.148Z,9.4
2022-11-17T00:14:00.157Z,9.4
2022-11-17T00:15:00.250Z,9.4
2022-11-17T00:16:00.167Z,9.4
2022-11-17T00:17:00.501Z,9.4
2022-11-17T00:18:00.475Z,9.4
2022-11-17T00:19:00.250Z,9.5
2022-11-17T00:20:00.167Z,9.5
2022-11-17T00:21:02.237Z,9.5
2022-11-17T00:22:00.156Z,9.5
2022-11-17T00:23:00.166Z,9.5
2022-11-17T00:24:00.156Z,9.5
2022-11-17T00:25:00.169Z,9.5
2022-11-17T00:26:00.152Z,9.5
2022-11-17T00:27:00.151Z,9.5
2022-11-17T00:28:00.159Z,9.5
2022-11-17T00:29:01.302Z,9.5
2022-11-17T00:30:00.187Z,9.5
2022-11-17T00:31:00.156Z,9.5
2022-11-17T00:32:00.197Z,9.5
2022-11-17T00:33:02.242Z,9.5
2022-11-17T00:34:00.271Z,9.5
2022-11-17T00:35:00.513Z,9.6
2022-11-17T00:36:00.152Z,9.6
2022-11-17T00:37:00.186Z,9.6
2022-11-17T00:38:00.156Z,9.6
2022-11-17T00:39:00.168Z,9.6
2022-11-17T00:40:01.219Z,9.6
2022-11-17T00:41:00.152Z,9.6
2022-11-17T00:42:00.163Z,9.6
2022-11-17T00:43:00.158Z,9.7
2022-11-17T00:44:00.253Z,9.7
2022-11-17T00:45:00.159Z,9.6
2022-11-17T00:46:00.157Z,9.6
2022-11-17T00:47:00.387Z,9.6
2022-11-17T00:48:00.159Z,9.6
2022-11-17T00:49:00.152Z,9.5
2022-11-17T00:50:00.217Z,9.5
2022-11-17T00:51:02.302Z,9.6
2022-11-17T00:52:00.156Z,9.6
2022-11-17T00:53:00.159Z,9.6
2022-11-17T00:54:00.158Z,9.6
2022-11-17T00:55:00.244Z,9.6
2022-11-17T00:56:00.162Z,9.6
2022-11-17T00:57:00.231Z,9.6
2022-11-17T00:58:00.156Z,9.6
2022-11-17T00:59:00.293Z,9.6
2022-11-17T01:00:00.195Z,9.6
2022-11-17T01:01:00.223Z,9.6
2022-11-17T01:02:00.291Z,9.6
2022-11-17T01:03:00.159Z,9.6
2022-11-17T01:04:00.246Z,9.6
2022-11-17T01:05:00.161Z,9.6
2022-11-17T01:06:04.178Z,9.6
2022-11-17T01:07:00.226Z,9.6
2022-11-17T01:08:00.154Z,9.6
2022-11-17T01:09:01.375Z,9.7
2022-11-17T01:10:00.173Z,9.7
2022-11-17T01:11:09.841Z,9.7
2022-11-17T01:12:00.176Z,9.7
2022-11-17T01:13:00.269Z,9.7
2022-11-17T01:14:00.260Z,9.7
2022-11-17T01:15:00.190Z,9.7
2022-11-17T01:16:01.063Z,9.7
2022-11-17T01:17:00.159Z,9.7
2022-11-17T01:18:00.150Z,9.7
2022-11-17T01:19:00.759Z,9.7
2022-11-17T01:20:00.239Z,9.7
2022-11-17T01:21:10.091Z,9.7
2022-11-17T01:22:00.146Z,9.7
2022-11-17T01:23:00.157Z,9.8
2022-11-17T01:24:00.693Z,9.8
2022-11-17T01:25:00.170Z,9.8
2022-11-17T01:26:01.104Z,9.8
2022-11-17T01:27:00.161Z,9.8
2022-11-17T01:28:00.157Z,9.8
2022-11-17T01:29:01.209Z,9.7
2022-11-17T01:30:00.171Z,9.7
2022-11-17T01:31:02.338Z,9.8
2022-11-17T01:32:00.150Z,9.8
2022-11-17T01:33:00.156Z,9.8
2022-11-17T01:34:00.165Z,9.8
2022-11-17T01:35:00.154Z,9.8
2022-11-17T01:36:01.726Z,9.8
2022-11-17T01:37:00.181Z,9.8
2022-11-17T01:38:00.160Z,9.8
2022-11-17T01:39:00.148Z,9.8
2022-11-17T01:40:00.156Z,9.8
2022-11-17T01:41:00.934Z,9.8
2022-11-17T01:42:02.217Z,9.8
2022-11-17T01:43:00.159Z,9.8
2022-11-17T01:44:10.102Z,9.8
2022-11-17T01:45:00.148Z,9.9
2022-11-17T01:46:00.269Z,9.9
2022-11-17T01:47:01.306Z,9.9
2022-11-17T01:48:01.896Z,9.9
2022-11-17T01:49:03.410Z,10.0
2022-11-17T01:50:03.674Z,10.0
2022-11-17T01:51:00.217Z,10.1
2022-11-17T01:52:03.189Z,10.1
2022-11-17T01:53:01.539Z,10.1
2022-11-17T01:54:00.382Z,10.1
2022-11-17T01:55:00.920Z,10.1
2022-11-17T01:56:02.865Z,10.1
2022-11-17T01:57:04.086Z,10.1
2022-11-17T01:58:03.859Z,10.1
2022-11-17T01:59:05.009Z,10.1
2022-11-17T02:00:02.659Z,10.1
2022-11-17T02:01:00.250Z,10.1
2022-11-17T02:02:00.299Z,10.1
2022-11-17T02:03:00.569Z,10.2
2022-11-17T02:04:00.464Z,10.2
2022-11-17T02:05:07.948Z,10.3
2022-11-17T02:06:04.746Z,10.3
2022-11-17T02:07:05.394Z,10.3
2022-11-17T02:08:02.046Z,10.3
2022-11-17T02:09:02.314Z,10.4
2022-11-17T02:10:00.530Z,10.4
2022-11-17T02:11:02.679Z,10.3
2022-11-17T02:12:01.135Z,10.3
2022-11-17T02:13:00.449Z,10.4
2022-11-17T02:14:01.060Z,10.4
2022-11-17T02:15:00.199Z,10.4
2022-11-17T02:16:00.181Z,10.4
2022-11-17T02:17:08.945Z,10.4
2022-11-17T02:18:00.706Z,10.4
2022-11-17T02:19:00.205Z,10.4
2022-11-17T02:20:10.153Z,10.4
2022-11-17T02:21:07.559Z,10.4
2022-11-17T02:22:10.106Z,10.4
2022-11-17T02:23:10.101Z,10.5
2022-11-17T02:24:10.112Z,10.5
2022-11-17T02:25:00.209Z,10.5
2022-11-17T02:26:10.104Z,10.5
2022-11-17T02:27:00.152Z,10.5
2022-11-17T02:28:01.185Z,10.5
2022-11-17T02:29:03.410Z,10.5
2022-11-17T02:30:03.050Z,10.5
2022-11-17T02:31:10.103Z,10.4
2022-11-17T02:32:05.382Z,10.4
2022-11-17T02:33:10.095Z,10.4
2022-11-17T02:34:00.159Z,10.4
2022-11-17T02:35:03.405Z,10.4
2022-11-17T02:36:05.836Z,10.4
2022-11-17T02:37:06.601Z,10.5
2022-11-17T02:38:00.140Z,10.5
2022-11-17T02:39:10.094Z,10.5
2022-11-17T02:40:10.106Z,10.5
2022-11-17T02:41:00.150Z,10.4
2022-11-17T02:42:10.099Z,10.4
2022-11-17T02:43:02.319Z,10.5
2022-11-17T02:44:07.429Z,10.5
2022-11-17T02:45:02.313Z,10.5
2022-11-17T02:46:01.193Z,10.5
2022-11-17T02:47:03.802Z,10.4
2022-11-17T02:48:02.400Z,10.4
2022-11-17T02:49:03.832Z,10.5
2022-11-17T02:50:04.157Z,10.5
2022-11-17T02:51:01.649Z,10.4
2022-11-17T02:52:01.220Z,10.4
2022-11-17T02:53:00.347Z,10.4
2022-11-17T02:54:01.010Z,10.4
2022-11-17T02:55:01.135Z,10.4
2022-11-17T02:56:00.489Z,10.4
2022-11-17T02:57:00.297Z,10.5
2022-11-17T02:58:00.160Z,10.5
2022-11-17T02:59:01.884Z,10.4
2022-11-17T03:00:03.536Z,10.4
2022-11-17T03:01:00.144Z,10.5
2022-11-17T03:02:07.582Z,10.5
2022-11-17T03:03:10.089Z,10.6
2022-11-17T03:04:00.142Z,10.6
2022-11-17T03:05:00.186Z,10.6
2022-11-17T03:06:09.917Z,10.6
2022-11-17T03:07:07.706Z,10.6
2022-11-17T03:08:10.091Z,10.6
2022-11-17T03:09:07.432Z,10.5
2022-11-17T03:10:10.097Z,10.5
2022-11-17T03:11:02.478Z,10.5
2022-11-17T03:12:10.119Z,10.5
2022-11-17T03:13:08.283Z,10.5
2022-11-17T03:14:10.088Z,10.5
2022-11-17T03:15:07.633Z,10.6
2022-11-17T03:16:09.454Z,10.6
2022-11-17T03:17:04.266Z,10.6
2022-11-17T03:18:03.399Z,10.6
2022-11-17T03:19:07.497Z,10.5
2022-11-17T03:20:03.294Z,10.5
2022-11-17T03:21:00.140Z,10.4
2022-11-17T03:22:06.719Z,10.4
2022-11-17T03:23:00.139Z,10.4
2022-11-17T03:24:02.219Z,10.4
2022-11-17T03:25:01.974Z,10.5
2022-11-17T03:26:01.431Z,10.5
2022-11-17T03:27:10.095Z,10.4
2022-11-17T03:28:04.101Z,10.4
2022-11-17T03:29:02.517Z,10.3
2022-11-17T03:30:02.292Z,10.3
2022-11-17T03:31:03.590Z,10.4
2022-11-17T03:32:02.324Z,10.4
2022-11-17T03:33:03.551Z,10.5
2022-11-17T03:34:01.477Z,10.5
2022-11-17T03:35:05.402Z,10.5
2022-11-17T03:36:03.060Z,10.5
2022-11-17T03:37:02.446Z,10.5
2022-11-17T03:38:04.260Z,10.5
2022-11-17T03:39:06.133Z,10.5
2022-11-17T03:40:03.583Z,10.5
2022-11-17T03:41:02.092Z,10.5
2022-11-17T03:42:03.508Z,10.5
2022-11-17T03:43:01.501Z,10.4
2022-11-17T03:44:01.316Z,10.4
2022-11-17T03:45:04.630Z,10.4
2022-11-17T03:46:09.462Z,10.4
2022-11-17T03:47:02.476Z,10.5
2022-11-17T03:48:07.287Z,10.5
2022-11-17T03:49:10.086Z,10.7
2022-11-17T03:50:04.687Z,10.7
2022-11-17T03:51:03.849Z,10.6
2022-11-17T03:52:00.196Z,10.6
2022-11-17T03:53:01.767Z,10.6
2022-11-17T03:54:00.517Z,10.6
2022-11-17T03:55:00.888Z,10.4
2022-11-17T03:56:06.347Z,10.4
2022-11-17T03:57:00.133Z,10.3
2022-11-17T03:58:03.931Z,10.3
2022-11-17T03:59:02.339Z,10.5
2022-11-17T04:00:02.680Z,10.5
2022-11-17T04:01:01.921Z,10.4
2022-11-17T04:02:00.218Z,10.4
2022-11-17T04:03:00.172Z,10.3
2022-11-17T04:04:00.178Z,10.3
2022-11-17T04:05:00.171Z,10.4
2022-11-17T04:06:00.542Z,10.4
2022-11-17T04:07:00.204Z,10.4
2022-11-17T04:08:00.165Z,10.4
2022-11-17T04:09:00.174Z,10.3
2022-11-17T04:10:00.249Z,10.3
2022-11-17T04:11:00.155Z,10.2
2022-11-17T04:12:00.149Z,10.2
2022-11-17T04:13:00.148Z,10.1
2022-11-17T04:14:00.147Z,10.1
2022-11-17T04:15:00.178Z,10.1
2022-11-17T04:16:00.204Z,10.1
2022-11-17T04:17:00.160Z,10.3
2022-11-17T04:18:00.174Z,10.3
2022-11-17T04:19:00.196Z,10.2
2022-11-17T04:20:00.160Z,10.2
2022-11-17T04:21:00.158Z,10.2
2022-11-17T04:22:00.315Z,10.2
2022-11-17T04:23:01.178Z,10.2
2022-11-17T04:24:00.224Z,10.2
2022-11-17T04:25:00.154Z,10.2
2022-11-17T04:26:00.793Z,10.2
2022-11-17T04:27:00.161Z,10.2
2022-11-17T04:28:00.151Z,10.2
2022-11-17T04:29:00.210Z,10.2
2022-11-17T04:30:00.167Z,10.2
2022-11-17T04:31:00.171Z,10.2
2022-11-17T04:32:00.447Z,10.2
2022-11-17T04:33:00.146Z,10.3
2022-11-17T04:34:01.087Z,10.3
2022-11-17T04:35:00.148Z,10.3
2022-11-17T04:36:00.175Z,10.3
2022-11-17T04:37:05.353Z,10.3
2022-11-17T04:38:00.147Z,10.3
2022-11-17T04:39:00.161Z,10.3
2022-11-17T04:40:00.237Z,10.3
2022-11-17T04:41:01.039Z,10.5
2022-11-17T04:42:00.155Z,10.5
2022-11-17T04:43:00.144Z,10.4
2022-11-17T04:44:00.523Z,10.4
2022-11-17T04:45:00.162Z,10.5
2022-11-17T04:46:00.167Z,10.5
2022-11-17T04:47:00.156Z,10.4
2022-11-17T04:48:00.156Z,10.4
2022-11-17T04:49:00.595Z,10.4
2022-11-17T04:50:00.159Z,10.4
2022-11-17T04:51:00.153Z,10.3
2022-11-17T04:52:00.286Z,10.3
2022-11-17T04:53:00.147Z,10.3
2022-11-17T04:54:00.373Z,10.3
2022-11-17T04:55:00.156Z,10.3
2022-11-17T04:56:00.467Z,10.3
2022-11-17T04:57:00.144Z,10.4
2022-11-17T04:58:00.153Z,10.4
2022-11-17T04:59:00.194Z,10.4
2022-11-17T05:00:00.155Z,10.4
2022-11-17T05:01:00.227Z,10.6
2022-11-17T05:02:05.617Z,10.6
2022-11-17T05:03:00.151Z,10.6
2022-11-17T05:04:01.307Z,10.6
2022-11-17T05:05:00.156Z,10.6
2022-11-17T05:06:00.151Z,10.6
2022-11-17T05:07:00.243Z,10.6
2022-11-17T05:08:00.229Z,10.6
2022-11-17T05:09:02.084Z,10.6
2022-11-17T05:10:00.207Z,10.6
2022-11-17T05:11:00.240Z,10.5
2022-11-17T05:12:00.162Z,10.5
2022-11-17T05:13:00.151Z,10.6
2022-11-17T05:14:00.628Z,10.6
2022-11-17T05:15:00.169Z,10.6
2022-11-17T05:16:00.149Z,10.6
2022-11-17T05:17:04.501Z,10.5
2022-11-17T05:18:00.154Z,10.5
2022-11-17T05:19:00.378Z,10.5
2022-11-17T05:20:00.155Z,10.5
2022-11-17T05:21:01.452Z,10.6
2022-11-17T05:22:00.486Z,10.6
2022-11-17T05:23:05.337Z,10.6
2022-11-17T05:24:00.180Z,10.6
2022-11-17T05:25:00.689Z,10.7
2022-11-17T05:26:00.152Z,10.7
2022-11-17T05:27:00.153Z,10.6
2022-11-17T05:28:00.157Z,10.6
2022-11-17T05:29:01.698Z,10.7
2022-11-17T05:30:01.210Z,10.7
2022-11-17T05:31:00.156Z,10.6
2022-11-17T05:32:00.164Z,10.6
2022-11-17T05:33:00.158Z,10.6
2022-11-17T05:34:00.679Z,10.6
2022-11-17T05:35:00.154Z,10.7
2022-11-17T05:36:00.186Z,10.7
2022-11-17T05:37:00.148Z,10.7
2022-11-17T05:38:00.156Z,10.7
2022-11-17T05:39:00.234Z,10.7
2022-11-17T05:40:00.165Z,10.7
2022-11-17T05:41:00.407Z,10.7
2022-11-17T05:42:00.336Z,10.7
2022-11-17T05:43:00.152Z,10.7
2022-11-17T05:44:00.201Z,10.7
2022-11-17T05:45:00.175Z,10.7
2022-11-17T05:46:00.159Z,10.7
2022-11-17T05:47:00.210Z,10.6
2022-11-17T05:48:00.160Z,10.6
2022-11-17T05:49:00.188Z,10.7
2022-11-17T05:50:00.163Z,10.7
2022-11-17T05:51:00.655Z,10.8
2022-11-17T05:52:00.162Z,10.8
2022-11-17T05:53:00.162Z,10.7
2022-11-17T05:54:00.159Z,10.7
2022-11-17T05:55:00.153Z,10.9
2022-11-17T05:56:07.574Z,10.9
2022-11-17T05:57:00.134Z,10.9
2022-11-17T05:58:02.646Z,10.9
2022-11-17T05:59:10.094Z,10.9
2022-11-17T06:00:01.364Z,10.9
2022-11-17T06:01:00.202Z,11.0
2022-11-17T06:02:03.924Z,11.0
2022-11-17T06:03:04.393Z,10.9
2022-11-17T06:04:01.595Z,10.9
2022-11-17T06:05:01.029Z,11.0
2022-11-17T06:06:00.270Z,11.0
2022-11-17T06:07:00.796Z,11.0
2022-11-17T06:08:00.506Z,11.0
2022-11-17T06:09:00.241Z,10.9
2022-11-17T06:10:00.156Z,10.9
2022-11-17T06:11:00.152Z,11.0
2022-11-17T06:12:05.592Z,11.0
2022-11-17T06:13:00.176Z,11.0
2022-11-17T06:14:00.173Z,11.0
2022-11-17T06:15:00.262Z,10.9
2022-11-17T06:16:03.057Z,10.9
2022-11-17T06:17:02.455Z,10.9
2022-11-17T06:18:02.713Z,10.9
2022-11-17T06:19:03.504Z,10.9
2022-11-17T06:20:02.065Z,10.9
2022-11-17T06:21:00.384Z,10.9
2022-11-17T06:22:12.731Z,10.9
2022-11-17T06:23:02.516Z,10.9
2022-11-17T06:24:00.537Z,10.9
2022-11-17T06:25:02.121Z,10.9
2022-11-17T06:26:01.943Z,10.9
2022-11-17T06:27:00.195Z,10.9
2022-11-17T06:28:02.072Z,10.9
2022-11-17T06:29:01.599Z,10.9
2022-11-17T06:30:00.938Z,10.9
2022-11-17T06:31:00.515Z,10.9
2022-11-17T06:32:00.334Z,10.9
2022-11-17T06:33:00.571Z,11.1
2022-11-17T06:34:00.813Z,11.1
2022-11-17T06:35:02.269Z,11.0
2022-11-17T06:36:01.103Z,11.0
2022-11-17T06:37:00.181Z,11.0
2022-11-17T06:38:00.834Z,11.0
2022-11-17T06:39:00.157Z,10.8
2022-11-17T06:40:00.186Z,10.8
2022-11-17T06:41:00.637Z,10.6
2022-11-17T06:42:00.169Z,10.6
2022-11-17T06:43:00.164Z,10.8
2022-11-17T06:44:00.159Z,10.8
2022-11-17T06:45:00.154Z,10.7
2022-11-17T06:46:01.160Z,10.7
2022-11-17T06:47:00.194Z,10.8
2022-11-17T06:48:00.172Z,10.8
2022-11-17T06:49:00.152Z,10.7
2022-11-17T06:50:00.176Z,10.7
2022-11-17T06:51:00.852Z,10.7
2022-11-17T06:52:00.157Z,10.7
2022-11-17T06:53:01.154Z,10.6
2022-11-17T06:54:00.526Z,10.6
2022-11-17T06:55:00.192Z,10.7
2022-11-17T06:56:00.738Z,10.7
2022-11-17T06:57:00.179Z,10.9
2022-11-17T06:58:08.076Z,10.9
2022-11-17T06:59:00.196Z,10.8
2022-11-17T07:00:00.214Z,10.8
2022-11-17T07:01:08.568Z,10.8
2022-11-17T07:02:00.207Z,10.8
2022-11-17T07:03:00.603Z,10.8
2022-11-17T07:04:00.192Z,10.8
2022-11-17T07:05:00.187Z,10.7
2022-11-17T07:06:00.566Z,10.7
2022-11-17T07:07:00.267Z,10.7
2022-11-17T07:08:01.297Z,10.7
2022-11-17T07:09:00.198Z,10.8
2022-11-17T07:10:00.250Z,10.8
2022-11-17T07:11:04.562Z,10.8
2022-11-17T07:12:00.174Z,10.8
2022-11-17T07:13:00.604Z,10.7
2022-11-17T07:14:00.206Z,10.7
2022-11-17T07:15:00.441Z,10.7
2022-11-17T07:16:03.088Z,10.7
2022-11-17T07:17:00.206Z,10.6
2022-11-17T07:18:00.184Z,10.6
2022-11-17T07:19:00.267Z,10.5
2022-11-17T07:20:00.216Z,10.5
2022-11-17T07:21:02.615Z,10.6
2022-11-17T07:22:00.191Z,10.6
2022-11-17T07:23:00.203Z,10.6
2022-11-17T07:24:00.327Z,10.6
2022-11-17T07:25:00.213Z,10.5
2022-11-17T07:26:00.296Z,10.5
2022-11-17T07:27:00.265Z,10.5
2022-11-17T07:28:00.244Z,10.5
2022-11-17T07:29:00.174Z,10.5
2022-11-17T07:30:00.213Z,10.5
2022-11-17T07:31:00.985Z,10.5
2022-11-17T07:32:00.224Z,10.5
2022-11-17T07:33:00.190Z,10.6
2022-11-17T07:34:00.215Z,10.6
2022-11-17T07:35:00.477Z,10.6
2022-11-17T07:36:08.880Z,10.6
2022-11-17T07:37:00.182Z,10.6
2022-11-17T07:38:00.448Z,10.6
2022-11-17T07:39:00.220Z,10.3
2022-11-17T07:40:00.300Z,10.3
2022-11-17T07:41:00.213Z,10.6
2022-11-17T07:42:00.206Z,10.6
2022-11-17T07:43:00.198Z,10.4
2022-11-17T07:44:00.269Z,10.4
2022-11-17T07:45:00.220Z,10.3
2022-11-17T07:46:04.139Z,10.3
2022-11-17T07:47:00.226Z,10.2
2022-11-17T07:48:00.951Z,10.2
2022-11-17T07:49:00.190Z,10.3
2022-11-17T07:50:00.202Z,10.3
2022-11-17T07:51:00.638Z,10.3
2022-11-17T07:52:00.177Z,10.3
2022-11-17T07:53:00.206Z,10.3
2022-11-17T07:54:00.197Z,10.3
2022-11-17T07:55:00.196Z,10.3
2022-11-17T07:56:02.208Z,10.3
2022-11-17T07:57:00.206Z,10.2
2022-11-17T07:58:00.600Z,10.2
2022-11-17T07:59:00.180Z,10.3
2022-11-17T08:00:00.184Z,10.3
2022-11-17T08:01:04.447Z,10.3
2022-11-17T08:02:00.234Z,10.3
2022-11-17T08:03:00.804Z,10.2
2022-11-17T08:04:00.355Z,10.2
2022-11-17T08:05:00.204Z,10.1
2022-11-17T08:06:00.947Z,10.1
2022-11-17T08:07:00.267Z,10.2
2022-11-17T08:08:00.208Z,10.2
2022-11-17T08:09:00.206Z,10.2
2022-11-17T08:10:00.177Z,10.2
2022-11-17T08:11:01.707Z,10.3
2022-11-17T08:12:00.174Z,10.3
2022-11-17T08:13:00.217Z,10.2
2022-11-17T08:14:00.187Z,10.2
2022-11-17T08:15:00.186Z,10.2
2022-11-17T08:16:00.228Z,10.2
2022-11-17T08:17:00.202Z,10.2
2022-11-17T08:18:00.499Z,10.2
2022-11-17T08:19:00.187Z,10.2
2022-11-17T08:20:00.200Z,10.2
2022-11-17T08:21:01.063Z,10.2
2022-11-17T08:22:00.195Z,10.2
2022-11-17T08:23:00.175Z,10.2
2022-11-17T08:24:00.224Z,10.2
2022-11-17T08:25:00.181Z,10.4
2022-11-17T08:26:00.933Z,10.4
2022-11-17T08:27:00.209Z,10.3
2022-11-17T08:28:00.182Z,10.3
2022-11-17T08:29:00.195Z,10.3
2022-11-17T08:30:00.204Z,10.3
2022-11-17T08:31:00.598Z,10.3
2022-11-17T08:32:00.215Z,10.3
2022-11-17T08:33:00.767Z,10.3
2022-11-17T08:34:00.210Z,10.3
2022-11-17T08:35:00.607Z,10.3
2022-11-17T08:36:01.045Z,10.3
2022-11-17T08:37:00.192Z,10.3
2022-11-17T08:38:00.219Z,10.3
2022-11-17T08:39:00.204Z,10.2
2022-11-17T08:40:00.204Z,10.2
2022-11-17T08:41:01.450Z,10.3
2022-11-17T08:42:00.180Z,10.3
2022-11-17T08:43:01.553Z,10.3
2022-11-17T08:44:00.198Z,10.3
2022-11-17T08:45:00.206Z,10.4
2022-11-17T08:46:00.192Z,10.4
2022-11-17T08:47:00.208Z,10.3
2022-11-17T08:48:00.180Z,10.3
2022-11-17T08:49:00.182Z,10.3
2022-11-17T08:50:00.203Z,10.3
2022-11-17T08:51:04.158Z,10.3
2022-11-17T08:52:00.188Z,10.3
2022-11-17T08:53:00.177Z,10.3
2022-11-17T08:54:00.212Z,10.3
2022-11-17T08:55:00.354Z,10.4
2022-11-17T08:56:00.204Z,10.4
2022-11-17T08:57:00.276Z,10.2
2022-11-17T08:58:00.205Z,10.2
2022-11-17T08:59:00.979Z,10.3
2022-11-17T09:00:00.225Z,10.3
2022-11-17T09:01:05.183Z,10.1
2022-11-17T09:02:00.179Z,10.1
2022-11-17T09:03:00.233Z,10.1
2022-11-17T09:04:00.199Z,10.1
2022-11-17T09:05:00.190Z,10.1
2022-11-17T09:06:00.204Z,10.1
2022-11-17T09:07:00.288Z,10.1
2022-11-17T09:08:16.306Z,10.1
2022-11-17T09:09:00.642Z,10.1
2022-11-17T09:10:00.497Z,10.1
2022-11-17T09:11:04.163Z,10.2
2022-11-17T09:12:00.188Z,10.2
2022-11-17T09:13:00.160Z,10.1
2022-11-17T09:14:00.212Z,10.1
2022-11-17T09:15:00.167Z,10.0
2022-11-17T09:16:00.992Z,10.0
2022-11-17T09:17:00.156Z,10.0
2022-11-17T09:18:00.212Z,10.0
2022-11-17T09:19:00.154Z,10.1
2022-11-17T09:20:00.176Z,10.1
2022-11-17T09:21:00.965Z,10.0
2022-11-17T09:22:00.221Z,10.0
2022-11-17T09:23:00.287Z,10.1
2022-11-17T09:24:00.161Z,10.1
2022-11-17T09:25:00.173Z,10.3
2022-11-17T09:26:04.867Z,10.3
2022-11-17T09:27:00.475Z,10.2
2022-11-17T09:28:00.167Z,10.2
2022-11-17T09:29:01.049Z,10.1
2022-11-17T09:30:00.204Z,10.1
2022-11-17T09:31:05.095Z,10.1
2022-11-17T09:32:00.568Z,10.1
2022-11-17T09:33:00.172Z,10.0
2022-11-17T09:34:04.858Z,10.0
2022-11-17T09:35:00.298Z,10.0
2022-11-17T09:36:00.213Z,10.0
2022-11-17T09:37:00.194Z,10.0
2022-11-17T09:38:00.173Z,10.0
2022-11-17T09:39:00.164Z,10.1
2022-11-17T09:40:00.166Z,10.1
2022-11-17T09:41:07.896Z,10.1
2022-11-17T09:42:00.178Z,10.1
2022-11-17T09:43:00.415Z,10.2
2022-11-17T09:44:07.683Z,10.2
2022-11-17T09:45:03.855Z,10.2
2022-11-17T09:46:10.100Z,10.2
2022-11-17T09:47:04.477Z,10.2
2022-11-17T09:48:33.567Z,10.2
2022-11-17T09:49:10.127Z,10.3
2022-11-17T09:50:01.160Z,10.3
2022-11-17T09:51:01.199Z,10.2
2022-11-17T09:52:05.685Z,10.2
2022-11-17T09:53:01.172Z,10.1
2022-11-17T09:54:10.131Z,10.1
2022-11-17T09:55:10.126Z,10.2
2022-11-17T09:56:01.648Z,10.2
2022-11-17T09:57:00.645Z,10.2
2022-11-17T09:58:06.016Z,10.2
2022-11-17T09:59:01.766Z,10.3
2022-11-17T10:00:03.541Z,10.3
2022-11-17T10:01:00.199Z,10.2
2022-11-17T10:02:00.242Z,10.2
2022-11-17T10:03:00.219Z,10.3
2022-11-17T10:04:00.243Z,10.3
2022-11-17T10:05:00.455Z,10.3
2022-11-17T10:06:03.426Z,10.3
2022-11-17T10:07:01.339Z,10.4
2022-11-17T10:08:05.029Z,10.4
2022-11-17T10:09:10.105Z,10.4
2022-11-17T10:10:02.234Z,10.4
2022-11-17T10:11:00.199Z,10.5
2022-11-17T10:12:10.098Z,10.5
2022-11-17T10:13:01.553Z,10.5
2022-11-17T10:14:01.247Z,10.5
2022-11-17T10:15:10.100Z,10.5
2022-11-17T10:16:02.840Z,10.5
2022-11-17T10:17:00.183Z,10.6
2022-11-17T10:18:00.185Z,10.6
2022-11-17T10:19:01.587Z,10.6
2022-11-17T10:20:00.186Z,10.6
2022-11-17T10:21:00.191Z,10.5
2022-11-17T10:22:00.140Z,10.5
2022-11-17T10:23:00.748Z,10.6
2022-11-17T10:24:00.165Z,10.6
2022-11-17T10:25:00.462Z,10.6
2022-11-17T10:26:00.215Z,10.6
2022-11-17T10:27:01.117Z,10.7
2022-11-17T10:28:00.234Z,10.7
2022-11-17T10:29:08.469Z,10.6
2022-11-17T10:30:00.168Z,10.6
2022-11-17T10:31:03.262Z,10.7
2022-11-17T10:32:05.575Z,10.7
2022-11-17T10:33:00.965Z,10.7
2022-11-17T10:34:00.292Z,10.7
2022-11-17T10:35:10.113Z,10.7
2022-11-17T10:36:00.881Z,10.7
2022-11-17T10:37:03.070Z,10.8
2022-11-17T10:38:01.166Z,10.8
2022-11-17T10:39:00.228Z,10.8
2022-11-17T10:40:05.989Z,10.8
2022-11-17T10:41:00.776Z,10.8
2022-11-17T10:42:02.017Z,10.8
2022-11-17T10:43:04.265Z,10.8
2022-11-17T10:44:02.024Z,10.8
2022-11-17T10:45:00.588Z,10.9
2022-11-17T10:46:03.704Z,10.9
2022-11-17T10:47:02.943Z,10.9
2022-11-17T10:48:08.740Z,10.9
2022-11-17T10:49:01.263Z,10.9
2022-11-17T10:50:10.126Z,10.9
2022-11-17T10:51:10.128Z,10.9
2022-11-17T10:52:10.123Z,10.9
2022-11-17T10:53:12.880Z,10.9
2022-11-17T10:54:00.160Z,10.9
2022-11-17T10:55:10.103Z,11.0
2022-11-17T10:56:02.890Z,11.0
2022-11-17T10:57:03.586Z,11.1
2022-11-17T10:58:04.265Z,11.1
2022-11-17T10:59:10.101Z,11.0
2022-11-17T11:00:00.255Z,11.0
2022-11-17T11:01:01.977Z,10.9
2022-11-17T11:02:10.105Z,10.9
2022-11-17T11:03:02.530Z,11.0
2022-11-17T11:04:00.908Z,11.0
2022-11-17T11:05:09.034Z,11.0
2022-11-17T11:06:03.192Z,11.0
2022-11-17T11:07:07.733Z,11.0
2022-11-17T11:08:10.098Z,11.0
2022-11-17T11:09:00.167Z,11.0
2022-11-17T11:10:10.105Z,11.0
2022-11-17T11:11:01.742Z,10.9
2022-11-17T11:12:01.372Z,10.9
2022-11-17T11:13:10.128Z,10.9
2022-11-17T11:14:04.084Z,10.9
2022-11-17T11:15:00.851Z,10.9
2022-11-17T11:16:00.311Z,10.9
2022-11-17T11:17:05.068Z,10.8
2022-11-17T11:18:00.331Z,10.8
2022-11-17T11:19:00.202Z,10.8
2022-11-17T11:20:00.168Z,10.8
2022-11-17T11:21:10.121Z,10.8
2022-11-17T11:22:10.127Z,10.8
2022-11-17T11:23:05.915Z,10.8
2022-11-17T11:24:05.169Z,10.8
2022-11-17T11:25:09.225Z,10.9
2022-11-17T11:26:10.101Z,10.9
2022-11-17T11:27:10.096Z,10.8
2022-11-17T11:28:10.126Z,10.8
2022-11-17T11:29:01.187Z,10.9
2022-11-17T11:30:02.356Z,10.9
2022-11-17T11:31:10.105Z,10.9
2022-11-17T11:32:00.164Z,10.9
2022-11-17T11:33:10.120Z,10.9
2022-11-17T11:34:10.130Z,10.9
2022-11-17T11:35:14.552Z,10.8
2022-11-17T11:36:01.167Z,10.8
2022-11-17T11:37:07.399Z,10.9
2022-11-17T11:38:07.504Z,10.9
2022-11-17T11:39:00.167Z,10.9
2022-11-17T11:40:08.464Z,10.9
2022-11-17T11:41:09.245Z,10.9
2022-11-17T11:42:09.387Z,10.9
2022-11-17T11:43:09.634Z,10.9
2022-11-17T11:44:00.176Z,10.9
2022-11-17T11:45:10.127Z,10.9
2022-11-17T11:46:07.283Z,10.9
2022-11-17T11:47:10.127Z,11.0
2022-11-17T11:48:08.724Z,11.0
2022-11-17T11:49:05.252Z,11.0
2022-11-17T11:50:04.406Z,11.0
2022-11-17T11:51:04.118Z,10.9
2022-11-17T11:52:01.865Z,10.9
2022-11-17T11:53:04.880Z,10.9
2022-11-17T11:54:04.186Z,10.9
2022-11-17T11:55:04.425Z,10.8
2022-11-17T11:56:03.752Z,10.8
2022-11-17T11:57:00.615Z,10.8
2022-11-17T11:58:06.054Z,10.8
2022-11-17T11:59:04.236Z,10.9
2022-11-17T12:00:04.868Z,10.9
2022-11-17T12:01:04.908Z,11.0
2022-11-17T12:02:10.180Z,11.0
2022-11-17T12:03:04.057Z,10.9
2022-11-17T12:04:00.141Z,10.9
2022-11-17T12:05:10.134Z,10.9
2022-11-17T12:06:10.128Z,10.9
2022-11-17T12:07:00.263Z,10.9
2022-11-17T12:08:10.526Z,10.9
2022-11-17T12:09:05.401Z,10.9
2022-11-17T12:10:03.891Z,10.9
2022-11-17T12:11:05.394Z,11.1
2022-11-17T12:12:05.451Z,11.1
2022-11-17T12:13:00.787Z,11.0
2022-11-17T12:14:00.967Z,11.0
2022-11-17T12:15:10.113Z,11.1
2022-11-17T12:16:10.097Z,11.1
2022-11-17T12:17:05.050Z,11.0
2022-11-17T12:18:10.098Z,11.0
2022-11-17T12:19:00.318Z,11.0
2022-11-17T12:20:06.038Z,11.0
2022-11-17T12:21:10.097Z,11.1
2022-11-17T12:22:00.209Z,11.1
2022-11-17T12:23:05.502Z,11.1
2022-11-17T12:24:10.539Z,11.1
2022-11-17T12:25:10.128Z,10.9
2022-11-17T12:26:00.434Z,10.9
2022-11-17T12:27:10.119Z,11.0
2022-11-17T12:28:10.098Z,11.0
2022-11-17T12:29:10.128Z,11.0
2022-11-17T12:30:01.449Z,11.0
2022-11-17T12:31:08.284Z,11.0
2022-11-17T12:32:00.953Z,11.0
2022-11-17T12:33:01.258Z,10.9
2022-11-17T12:34:00.141Z,10.9
2022-11-17T12:35:10.103Z,10.9
2022-11-17T12:36:10.127Z,10.9
2022-11-17T12:37:10.100Z,10.9
2022-11-17T12:38:10.133Z,10.9
2022-11-17T12:39:04.620Z,11.0
2022-11-17T12:40:03.043Z,11.0
2022-11-17T12:41:00.200Z,10.9
2022-11-17T12:42:03.889Z,10.9
2022-11-17T12:43:10.124Z,10.9
2022-11-17T12:44:10.538Z,10.9
2022-11-17T12:45:00.196Z,10.9
2022-11-17T12:46:06.587Z,10.9
2022-11-17T12:47:10.095Z,10.9
2022-11-17T12:48:26.834Z,10.9
2022-11-17T12:49:10.188Z,10.9
2022-11-17T12:50:10.257Z,10.9
2022-11-17T12:51:10.125Z,11.0
2022-11-17T12:52:03.415Z,11.0
2022-11-17T12:53:00.149Z,11.0
2022-11-17T12:54:00.153Z,11.0
2022-11-17T12:55:10.135Z,11.0
2022-11-17T12:56:00.179Z,11.0
2022-11-17T12:57:10.126Z,10.9
2022-11-17T12:58:10.795Z,10.9
2022-11-17T12:59:10.131Z,10.9
2022-11-17T13:00:09.385Z,10.9
2022-11-17T13:01:03.480Z,10.8
2022-11-17T13:02:01.174Z,10.8
2022-11-17T13:03:06.007Z,10.8
2022-11-17T13:04:07.644Z,10.8
2022-11-17T13:05:03.908Z,10.7
2022-11-17T13:06:33.778Z,10.7
2022-11-17T13:07:02.389Z,10.8
2022-11-17T13:08:10.124Z,10.8
2022-11-17T13:09:01.403Z,10.8
2022-11-17T13:10:00.205Z,10.8
2022-11-17T13:11:02.296Z,10.9
2022-11-17T13:12:01.105Z,10.9
2022-11-17T13:13:07.727Z,10.9
2022-11-17T13:14:08.467Z,10.9
2022-11-17T13:15:01.265Z,11.0
2022-11-17T13:16:00.319Z,11.0
2022-11-17T13:17:00.852Z,10.9
2022-11-17T13:18:00.164Z,10.9
2022-11-17T13:19:00.248Z,10.9
2022-11-17T13:20:03.078Z,10.9
2022-11-17T13:21:00.976Z,10.9
2022-11-17T13:22:10.126Z,10.9